Weather at Bologna Guglielmo Marconi Airport

Public forecast

Using degrees Celsius for public forecast. Weather courtesy of forecast.io.

Current aviation weather report (METAR) for Bologna Guglielmo Marconi Airport

2024/06/21 17:50 (retrieved 12 minutes ago)

LIPE 211750Z 17007KT 140V200 CAVOK 31/15 Q1010

Aviation forecast (TAF) for Bologna Guglielmo Marconi Airport

2024/06/21 18:00 (retrieved 2 minutes ago)

TAF LIPE 211700Z 2118/2218 10010KT 9999 FEW020 SCT045 BECMG 2118/2120 28010KT BECMG 2123/2201 VRB05KT BECMG 2210/2212 28010KT